Time;durP1;ratioP1;P1;durP2;ratioP2;P2;SDS_P1;SDS_P2;PMS_P1;PMS_P2;Temp;Humidity;BMP_temperature;BMP_pressure;BME280_temperature;BME280_humidity;BME280_pressure;Samples;Min_cycle;Max_cycle;Signal;HPM_P1;HPM_P2
2021/05/07 00:04:23;;;;;;;44.00;19.73;;;;;;;7.48;71.75;99626.30;5154792;56;1136290;-72
2021/05/07 00:09:29;;;;;;;46.13;17.50;;;;;;;7.45;71.91;99619.12;5154799;56;1136214;-71
2021/05/07 00:14:34;;;;;;;88.93;36.37;;;;;;;7.46;71.92;99627.37;5154762;56;1138284;-73
2021/05/07 00:19:40;;;;;;;22.50;11.23;;;;;;;7.52;71.94;99629.50;5154692;56;1138565;-73
2021/05/07 00:24:45;;;;;;;13.93;7.55;;;;;;;7.56;72.12;99631.78;5155453;56;1138548;-71
2021/05/07 00:29:51;;;;;;;15.80;8.90;;;;;;;7.52;72.09;99630.81;5157013;56;1136605;-76
2021/05/07 00:34:56;;;;;;;42.83;17.43;;;;;;;7.49;72.37;99619.21;5156998;56;1134617;-74
2021/05/07 00:40:02;;;;;;;27.93;12.07;;;;;;;7.50;72.63;99617.78;5156814;56;1136570;-74
2021/05/07 00:45:10;;;;;;;15.08;6.60;;;;;;;7.48;72.60;99618.88;5156901;56;1136526;-76
2021/05/07 00:50:18;;;;;;;10.78;5.20;;;;;;;7.49;72.43;99613.47;5156832;56;1136571;-74
2021/05/07 00:55:24;;;;;;;20.83;8.80;;;;;;;7.51;72.42;99610.24;5156858;56;1136372;-76
2021/05/07 01:00:32;;;;;;;28.90;9.67;;;;;;;7.54;72.70;99615.75;5156865;56;1136175;-76
2021/05/07 01:05:38;;;;;;;18.42;8.35;;;;;;;7.56;72.83;99600.20;5157211;56;1136416;-76
2021/05/07 01:10:46;;;;;;;18.73;7.70;;;;;;;7.60;72.97;99595.53;5156110;56;1136437;-74
2021/05/07 01:15:52;;;;;;;21.13;10.47;;;;;;;7.62;73.02;99588.36;5157377;56;1134312;-73
2021/05/07 01:20:59;;;;;;;18.40;8.17;;;;;;;7.64;72.83;99583.30;5156538;56;1138403;-75
2021/05/07 01:26:05;;;;;;;13.37;6.10;;;;;;;7.71;72.85;99577.92;5156849;56;1136314;-71
2021/05/07 01:31:11;;;;;;;15.07;9.07;;;;;;;7.75;72.81;99574.56;5157101;56;1136417;-74
2021/05/07 01:36:18;;;;;;;17.10;7.60;;;;;;;7.76;73.03;99569.66;5157466;56;1136227;-78
2021/05/07 01:41:24;;;;;;;23.77;9.90;;;;;;;7.68;73.12;99571.58;5157217;56;1136394;-72
2021/05/07 01:46:30;;;;;;;14.93;6.40;;;;;;;7.60;73.10;99563.96;5157660;56;1134215;-74
2021/05/07 01:51:36;;;;;;;12.60;7.83;;;;;;;7.59;73.12;99564.92;5157546;56;1136353;-77
2021/05/07 01:56:42;;;;;;;16.27;6.93;;;;;;;7.56;73.05;99567.31;5157584;56;1136235;-75
2021/05/07 02:01:48;;;;;;;12.50;6.87;;;;;;;7.59;73.41;99566.23;5157653;56;1136360;-73
2021/05/07 02:06:54;;;;;;;23.67;8.83;;;;;;;7.56;73.48;99568.63;5157838;56;1136199;-73
2021/05/07 02:11:59;;;;;;;9.33;4.63;;;;;;;7.42;74.04;99570.21;5157411;56;1136402;-78
2021/05/07 02:17:06;;;;;;;3.93;2.10;;;;;;;7.31;74.34;99565.81;5157741;56;1134090;-73
2021/05/07 02:22:12;;;;;;;6.10;3.70;;;;;;;7.26;73.21;99562.70;5157661;56;1134508;-74
2021/05/07 02:27:17;;;;;;;6.97;5.57;;;;;;;7.25;74.06;99561.02;5155974;56;1134499;-75
2021/05/07 02:32:23;;;;;;;12.63;5.23;;;;;;;7.24;74.71;99565.92;5153922;56;1134604;-76
2021/05/07 02:37:29;;;;;;;9.60;5.40;;;;;;;7.21;74.88;99564.01;5153797;56;1136671;-73
2021/05/07 02:42:35;;;;;;;8.93;6.47;;;;;;;7.14;75.25;99554.47;5153885;56;1134537;-80
2021/05/07 02:47:42;;;;;;;14.63;7.57;;;;;;;7.13;75.42;99559.37;5154494;56;1132526;-76
2021/05/07 02:52:49;;;;;;;15.55;8.20;;;;;;;7.18;75.78;99547.98;5154153;56;1134707;-73
2021/05/07 02:57:55;;;;;;;14.50;5.57;;;;;;;7.25;75.78;99545.25;5153899;56;1136738;-74
2021/05/07 03:03:01;;;;;;;12.87;6.50;;;;;;;7.33;75.98;99545.45;5153718;56;1136862;-73
2021/05/07 03:08:07;;;;;;;13.83;7.77;;;;;;;7.36;76.09;99544.37;5153585;56;1136766;-75
2021/05/07 03:13:12;;;;;;;10.50;6.33;;;;;;;7.39;76.51;99548.09;5153746;56;1136801;-76
2021/05/07 03:18:20;;;;;;;10.37;5.70;;;;;;;7.38;76.52;99545.09;5153628;56;1136677;-78
2021/05/07 03:23:25;;;;;;;15.87;9.57;;;;;;;7.44;76.47;99547.73;5153638;56;1136723;-73
2021/05/07 03:28:31;;;;;;;9.47;5.87;;;;;;;7.47;76.46;99547.49;5154342;56;1136934;-80
2021/05/07 03:33:39;;;;;;;23.87;7.03;;;;;;;7.49;76.57;99548.17;5157391;56;1134630;-74
2021/05/07 03:38:45;;;;;;;9.48;5.87;;;;;;;7.44;76.60;99541.16;5157263;56;1136858;-75
2021/05/07 03:43:50;;;;;;;21.17;8.65;;;;;;;7.39;76.51;99548.09;5157490;56;1134802;-77
2021/05/07 03:48:56;;;;;;;13.63;7.23;;;;;;;7.41;76.39;99549.64;5157449;56;1136710;-75
2021/05/07 03:54:02;;;;;;;6.77;5.13;;;;;;;7.45;76.19;99544.14;5153083;56;1136714;-76
2021/05/07 03:59:08;;;;;;;12.17;5.67;;;;;;;7.36;76.28;99547.02;5157450;56;1134846;-73
2021/05/07 04:04:13;;;;;;;10.03;4.53;;;;;;;7.26;76.46;99547.39;5157101;56;1136891;-75
2021/05/07 04:09:28;;;;;;;7.90;4.80;;;;;;;7.16;76.72;99542.05;5157006;56;1136717;-78
2021/05/07 04:14:26;;;;;;;5.60;3.90;;;;;;;7.19;76.88;99537.83;5156200;56;1134644;-76
2021/05/07 04:19:32;;;;;;;8.87;5.33;;;;;;;7.22;77.04;99548.59;5157138;56;1134757;-75
2021/05/07 04:24:38;;;;;;;255.22;152.30;;;;;;;7.31;77.57;99547.40;5152354;56;1134837;-79
2021/05/07 04:29:44;;;;;;;102.27;65.17;;;;;;;7.41;77.72;99553.59;5156606;56;1146168;-74
2021/05/07 04:34:49;;;;;;;82.67;41.75;;;;;;;7.46;77.61;99554.55;5156772;56;1141128;-74
2021/05/07 04:39:55;;;;;;;19.10;8.27;;;;;;;7.46;77.22;99552.39;5157352;56;1136882;-75
2021/05/07 04:45:00;;;;;;;14.27;5.23;;;;;;;7.46;77.07;99559.81;5157002;56;1136647;-77
2021/05/07 04:50:08;;;;;;;9.87;5.30;;;;;;;7.44;77.00;99570.93;5157167;56;1136418;-76
2021/05/07 04:55:14;;;;;;;7.00;4.70;;;;;;;7.44;77.18;99571.41;5157251;56;1134182;-79
2021/05/07 05:00:21;;;;;;;8.10;5.30;;;;;;;7.41;77.31;99581.69;5157260;56;1134634;-79
2021/05/07 05:05:27;;;;;;;8.53;5.13;;;;;;;7.37;77.49;99584.20;5157342;56;1134279;-77
2021/05/07 05:10:33;;;;;;;9.70;5.73;;;;;;;7.37;77.70;99595.55;5158292;56;1134136;-75
2021/05/07 05:15:38;;;;;;;8.03;5.43;;;;;;;7.37;77.75;99594.23;5158130;56;1134248;-83
2021/05/07 05:20:44;;;;;;;7.30;5.03;;;;;;;7.32;78.23;99604.31;5158192;56;1143873;-72
2021/05/07 05:25:50;;;;;;;10.28;5.25;;;;;;;7.34;78.46;99607.63;5158076;56;1134194;-81
2021/05/07 05:30:56;;;;;;;9.30;5.10;;;;;;;7.36;78.46;99614.92;5157898;56;1136674;-77
2021/05/07 05:36:02;;;;;;;7.87;5.10;;;;;;;7.36;78.83;99607.03;5157875;56;1134138;-77
2021/05/07 05:41:07;;;;;;;8.93;5.20;;;;;;;7.39;78.93;99612.53;5157839;56;1134160;-75
2021/05/07 05:46:13;;;;;;;12.67;5.03;;;;;;;7.41;79.22;99611.94;5158031;56;1134247;-77
2021/05/07 05:51:19;;;;;;;7.50;4.40;;;;;;;7.43;79.22;99607.40;5157750;56;1136573;-73
2021/05/07 05:56:25;;;;;;;12.03;5.93;;;;;;;7.45;79.08;99610.75;5157911;56;1134385;-77
2021/05/07 06:01:30;;;;;;;8.83;5.63;;;;;;;7.50;79.59;99616.46;5157672;56;1136367;-74
2021/05/07 06:06:36;;;;;;;5.70;3.97;;;;;;;7.62;79.34;99612.05;5130503;56;1134308;-74
2021/05/07 06:11:42;;;;;;;16.47;5.80;;;;;;;7.71;79.20;99617.39;5146670;57;1134316;-72
2021/05/07 06:16:48;;;;;;;10.67;6.60;;;;;;;7.95;79.17;99615.88;5126846;56;1136498;-80
2021/05/07 06:21:53;;;;;;;10.35;6.30;;;;;;;7.95;79.17;99615.88;5126668;57;1136645;-77
2021/05/07 06:26:59;;;;;;;12.40;5.63;;;;;;;8.10;78.96;99625.17;5126924;57;1136279;-73
2021/05/07 06:32:07;;;;;;;9.20;4.27;;;;;;;8.25;78.39;99623.08;5122738;56;1136720;-75
2021/05/07 06:37:26;;;;;;;6.20;4.00;;;;;;;8.39;77.58;99621.52;5066476;57;1134810;-72
2021/05/07 06:42:36;;;;;;;8.40;5.03;;;;;;;8.44;76.56;99630.34;5032595;57;1134790;-80
2021/05/07 06:47:41;;;;;;;4.93;3.53;;;;;;;8.48;76.06;99629.61;5047009;57;1134758;-78
2021/05/07 06:52:47;;;;;;;6.12;4.35;;;;;;;8.50;75.56;99639.55;5039285;57;1134698;-81
2021/05/07 06:57:52;;;;;;;8.70;4.58;;;;;;;8.55;76.24;99635.58;5034770;57;1134627;-73
2021/05/07 07:02:58;;;;;;;7.00;4.08;;;;;;;8.81;76.67;99637.34;5004213;58;1134706;-75
2021/05/07 07:08:05;;;;;;;10.80;4.57;;;;;;;8.99;75.39;99629.67;5023974;57;1134544;-79
2021/05/07 07:13:11;;;;;;;16.33;5.43;;;;;;;9.15;75.25;99631.36;5051394;57;1136786;-73
2021/05/07 07:18:21;;;;;;;5.03;4.10;;;;;;;9.27;74.90;99636.89;5068694;57;1136881;-77
2021/05/07 07:23:27;;;;;;;8.83;5.13;;;;;;;9.48;75.63;99629.73;5085745;57;1134980;-82
2021/05/07 07:28:35;;;;;;;14.18;4.72;;;;;;;9.70;74.01;99633.98;5085981;57;1134607;-72
2021/05/07 07:33:49;;;;;;;11.27;3.53;;;;;;;9.95;75.31;99628.67;5109706;56;1136781;-73
2021/05/07 07:38:51;;;;;;;2.90;2.27;;;;;;;10.23;73.56;99624.45;5152878;55;1136753;-75
2021/05/07 07:43:56;;;;;;;4.80;2.83;;;;;;;10.55;69.98;99630.26;5154581;56;1136886;-76
2021/05/07 07:49:03;;;;;;;7.27;3.70;;;;;;;10.54;69.60;99627.27;5150644;56;1136411;-77
2021/05/07 07:54:11;;;;;;;4.47;2.67;;;;;;;10.53;69.47;99633.55;5154413;56;1136732;-78
2021/05/07 07:59:16;;;;;;;3.80;3.00;;;;;;;10.59;66.41;99633.46;5146881;56;1136615;-78
2021/05/07 08:04:22;;;;;;;5.33;2.83;;;;;;;10.61;67.65;99634.65;5093873;56;1136635;-77
2021/05/07 08:09:29;;;;;;;5.93;3.43;;;;;;;10.76;66.79;99639.36;5087699;56;1136579;-77
2021/05/07 08:14:34;;;;;;;4.20;3.20;;;;;;;10.92;66.37;99638.29;5087630;56;1136193;-77
2021/05/07 08:19:40;;;;;;;8.27;4.03;;;;;;;11.03;64.48;99639.09;5087362;56;1136737;-77
2021/05/07 08:24:48;;;;;;;3.90;3.03;;;;;;;11.08;63.34;99639.50;5087772;56;1136984;-77
2021/05/07 08:29:55;;;;;;;6.87;2.90;;;;;;;11.21;62.79;99638.69;5087018;56;1136769;-76
2021/05/07 08:35:03;;;;;;;3.95;3.00;;;;;;;11.26;63.46;99633.81;5087523;56;1136718;-76
2021/05/07 08:40:14;;;;;;;25.00;6.87;;;;;;;11.32;62.07;99643.80;5086398;56;1136678;-77
2021/05/07 08:45:19;;;;;;;5.03;4.53;;;;;;;11.20;60.44;99634.38;5087332;56;1138787;-77
2021/05/07 08:50:25;;;;;;;7.27;2.60;;;;;;;11.11;61.47;99648.00;5087332;56;1136870;-77
2021/05/07 08:55:31;;;;;;;4.30;3.43;;;;;;;10.86;60.33;99645.45;5087555;56;1136752;-77
2021/05/07 09:00:38;;;;;;;3.13;2.83;;;;;;;10.68;61.27;99652.95;5087484;56;1136712;-77
2021/05/07 09:05:43;;;;;;;7.20;2.47;;;;;;;10.55;61.26;99659.34;5087108;56;1136905;-77
2021/05/07 09:10:49;;;;;;;3.97;2.47;;;;;;;10.50;61.95;99665.55;5083426;56;1136686;-78
2021/05/07 09:15:54;;;;;;;4.78;2.77;;;;;;;10.46;61.92;99669.45;5087561;56;1136704;-78
2021/05/07 09:21:01;;;;;;;5.62;4.15;;;;;;;10.37;60.72;99670.77;5087521;56;1136864;-77
2021/05/07 09:26:07;;;;;;;10.35;4.87;;;;;;;10.20;60.72;99669.64;5087315;56;1136177;-77
2021/05/07 09:31:16;;;;;;;4.70;2.90;;;;;;;10.01;62.58;99679.66;5090307;56;1138372;-77
2021/05/07 09:36:31;;;;;;;2.73;2.00;;;;;;;9.69;63.47;99682.48;5154077;56;1136685;-77
2021/05/07 09:41:51;;;;;;;3.93;2.33;;;;;;;9.38;63.74;99692.70;5154212;56;1134383;-77
2021/05/07 09:46:57;;;;;;;3.10;2.72;;;;;;;9.21;63.69;99700.73;5154689;56;1132212;-77
2021/05/07 09:52:02;;;;;;;3.42;2.50;;;;;;;9.10;63.72;99700.81;5155043;56;1132488;-78
2021/05/07 09:57:08;;;;;;;13.58;5.78;;;;;;;9.13;64.27;99700.55;5155028;56;1132507;-78
2021/05/07 10:02:14;;;;;;;13.30;5.63;;;;;;;9.22;65.13;99698.44;5154881;56;1134317;-77
2021/05/07 10:07:20;;;;;;;9.37;4.17;;;;;;;9.39;65.79;99703.61;5151062;56;1136343;-77
2021/05/07 10:12:26;;;;;;;5.20;2.00;;;;;;;9.64;65.98;99700.52;5154940;56;1134319;-77
2021/05/07 10:17:31;;;;;;;11.33;3.67;;;;;;;9.90;65.37;99702.70;5154887;56;1134194;-76
2021/05/07 10:22:41;;;;;;;6.97;3.43;;;;;;;10.12;63.98;99701.98;5154700;56;1136407;-77
2021/05/07 10:27:49;;;;;;;3.93;1.80;;;;;;;10.22;62.07;99712.63;5160007;56;1136746;-79
2021/05/07 10:33:04;;;;;;;3.70;1.80;;;;;;;9.93;58.18;99710.37;5117262;56;1136442;-79
2021/05/07 10:38:18;;;;;;;3.67;2.23;;;;;;;9.69;59.05;99718.61;5096154;56;1134279;-78
2021/05/07 10:43:26;;;;;;;3.13;2.23;;;;;;;9.66;60.15;99724.98;5120887;56;1134152;-79
2021/05/07 10:48:35;;;;;;;4.97;3.03;;;;;;;9.70;57.73;99730.36;5100121;56;1134082;-76
2021/05/07 10:53:41;;;;;;;5.20;3.62;;;;;;;9.73;58.11;99733.22;5138946;56;1134383;-85
2021/05/07 10:58:47;;;;;;;7.37;4.33;;;;;;;9.77;59.75;99735.48;5146115;56;1134823;-79
2021/05/07 11:04:13;;;;;;;5.12;3.33;;;;;;;9.81;59.93;99736.86;5150989;56;1134585;-79
2021/05/07 11:09:23;;;;;;;3.43;2.50;;;;;;;9.86;59.41;99743.06;5093225;56;1134673;-78
2021/05/07 11:14:29;;;;;;;2.80;2.50;;;;;;;9.83;59.53;99746.81;5149784;56;1134638;-78
2021/05/07 11:19:39;;;;;;;10.07;5.93;;;;;;;9.83;60.18;99748.61;5153552;56;1134641;-78
2021/05/07 11:24:47;;;;;;;5.13;2.20;;;;;;;9.78;60.17;99764.01;5153669;56;1136941;-78
2021/05/07 11:29:56;;;;;;;4.37;3.43;;;;;;;9.61;60.41;99789.25;5157043;56;1134618;-78
2021/05/07 11:35:05;;;;;;;4.00;3.10;;;;;;;9.27;63.56;99793.89;5155635;56;1132520;-78
2021/05/07 11:40:15;;;;;;;5.22;3.12;;;;;;;8.83;66.63;99813.88;5156963;56;1134778;-78
2021/05/07 11:45:24;;;;;;;12.83;5.40;;;;;;;8.46;70.26;99827.37;5153718;56;1134290;-78
2021/05/07 11:50:31;;;;;;;9.47;3.50;;;;;;;8.13;70.52;99849.27;5148164;56;1136728;-78
2021/05/07 11:55:44;;;;;;;16.57;10.13;;;;;;;7.85;72.19;99854.53;5150227;56;1134629;-80
2021/05/07 12:00:54;;;;;;;44.63;23.20;;;;;;;7.73;74.54;99859.42;5152897;56;1138634;-77
2021/05/07 12:06:00;;;;;;;8.38;3.65;;;;;;;7.64;73.94;99864.89;5152165;56;1138817;-76
2021/05/07 12:11:11;;;;;;;5.17;3.15;;;;;;;7.63;75.17;99872.94;5153343;56;1134205;-74
2021/05/07 12:16:20;;;;;;;4.90;2.77;;;;;;;7.59;74.60;99884.16;5152704;56;1134131;-75
2021/05/07 12:21:26;;;;;;;3.47;2.60;;;;;;;7.50;75.00;99891.89;5148561;56;1134518;-73
2021/05/07 12:26:32;;;;;;;5.63;2.77;;;;;;;7.28;74.84;99892.66;5153418;56;1134379;-75
2021/05/07 12:31:41;;;;;;;3.47;2.23;;;;;;;7.17;75.30;99889.98;5151877;56;1134772;-76
2021/05/07 12:36:59;;;;;;;2.47;2.20;;;;;;;7.05;76.33;99885.13;5152959;56;1134153;-77
2021/05/07 12:42:08;;;;;;;2.80;2.40;;;;;;;7.00;77.25;99882.86;5152984;56;1134698;-76
2021/05/07 12:47:14;;;;;;;4.30;2.00;;;;;;;6.96;77.37;99900.27;5137268;56;1134520;-72
2021/05/07 12:52:20;;;;;;;5.10;3.17;;;;;;;6.83;79.05;99906.89;5126429;56;1134687;-77
2021/05/07 12:57:25;;;;;;;4.03;2.97;;;;;;;6.73;78.58;99916.84;4990200;57;1134613;-73
2021/05/07 13:02:36;;;;;;;2.07;1.70;;;;;;;6.72;78.21;99915.19;4990285;57;1134683;-76
2021/05/07 13:07:41;;;;;;;3.50;2.60;;;;;;;6.76;78.41;99921.88;4987473;57;1134889;-74
2021/05/07 13:12:49;;;;;;;1.83;1.70;;;;;;;6.75;78.42;99923.67;4995532;56;1135057;-76
2021/05/07 13:17:54;;;;;;;3.53;2.77;;;;;;;6.76;78.64;99925.83;4991514;57;1134514;-73
2021/05/07 13:23:00;;;;;;;4.92;2.85;;;;;;;6.69;78.46;99939.42;4991740;56;1134839;-73
2021/05/07 13:28:08;;;;;;;18.20;10.47;;;;;;;6.67;78.58;99949.66;4986487;57;1134571;-76
2021/05/07 13:33:14;;;;;;;101.13;84.47;;;;;;;6.63;78.60;99951.66;4997250;56;1138924;-70
2021/05/07 13:38:20;;;;;;;217.97;175.70;;;;;;;6.59;79.03;99951.50;4993377;57;1140770;-74
2021/05/07 13:43:26;;;;;;;51.77;29.83;;;;;;;6.53;78.87;99955.89;4994446;57;1142998;-74
2021/05/07 13:48:33;;;;;;;53.67;27.93;;;;;;;6.45;78.68;99958.20;5129542;56;1138682;-76
2021/05/07 13:53:38;;;;;;;66.80;31.97;;;;;;;6.43;78.77;99963.19;5129136;56;1138689;-74
2021/05/07 13:58:44;;;;;;;90.93;40.63;;;;;;;6.34;78.73;99966.83;5129955;55;1138685;-72
2021/05/07 14:03:49;;;;;;;244.90;106.43;;;;;;;6.24;78.66;99965.79;5128225;56;1138891;-72
2021/05/07 14:08:55;;;;;;;53.53;29.67;;;;;;;6.13;78.58;99977.47;5131408;55;1143092;-72
2021/05/07 14:14:04;;;;;;;119.53;59.20;;;;;;;6.02;78.96;99987.86;5131283;56;1138728;-69
2021/05/07 14:19:12;;;;;;;27.57;14.97;;;;;;;5.98;79.01;99994.25;5135826;55;1140876;-72
2021/05/07 14:24:17;;;;;;;11.50;5.60;;;;;;;5.89;78.94;100002.76;5129152;56;1139101;-72
2021/05/07 14:29:23;;;;;;;14.27;8.07;;;;;;;5.88;79.44;100013.72;5129384;55;1138871;-75
2021/05/07 14:34:28;;;;;;;9.43;5.10;;;;;;;5.88;79.72;100016.78;5133168;56;1138798;-76
2021/05/07 14:39:35;;;;;;;25.05;13.53;;;;;;;5.84;79.75;100026.64;5130652;56;1136660;-75
2021/05/07 14:44:41;;;;;;;7.33;3.90;;;;;;;5.82;79.72;100036.39;5127874;55;1140744;-75
2021/05/07 14:49:47;;;;;;;22.67;10.53;;;;;;;5.75;80.45;100037.75;5123920;56;1136540;-74
2021/05/07 14:54:53;;;;;;;27.70;14.68;;;;;;;5.66;80.34;100040.95;5128352;56;1140996;-75
2021/05/07 14:59:58;;;;;;;20.25;11.73;;;;;;;5.62;80.32;100047.36;5108106;56;1140830;-73
2021/05/07 15:05:05;;;;;;;6.60;4.12;;;;;;;5.63;80.45;100060.38;5124504;55;1140863;-74
2021/05/07 15:10:11;;;;;;;2.70;2.27;;;;;;;5.64;80.22;100059.45;5124249;55;1136403;-77
2021/05/07 15:15:19;;;;;;;12.57;6.20;;;;;;;5.63;80.88;100064.78;5124525;56;1136407;-73
2021/05/07 15:20:24;;;;;;;136.37;71.30;;;;;;;5.55;81.12;100081.00;5000036;57;1138900;-74
2021/05/07 15:25:30;;;;;;;34.93;19.20;;;;;;;5.49;80.80;100093.22;5124295;56;1143045;-75
2021/05/07 15:30:36;;;;;;;106.47;48.87;;;;;;;5.48;81.10;100101.17;5123478;55;1141059;-77
2021/05/07 15:35:42;;;;;;;11.87;5.27;;;;;;;5.43;80.80;100111.11;5123687;56;1142992;-75
2021/05/07 15:40:47;;;;;;;22.40;8.10;;;;;;;5.28;80.91;100114.22;5126796;56;1138749;-74
2021/05/07 15:45:54;;;;;;;103.58;37.28;;;;;;;5.14;80.85;100116.39;5123619;56;1138665;-74
2021/05/07 15:50:59;;;;;;;4.67;3.40;;;;;;;5.03;81.56;100117.52;5124034;56;1140733;-74
2021/05/07 15:56:05;;;;;;;16.35;6.60;;;;;;;4.97;81.32;100122.28;5123155;55;1137038;-73
2021/05/07 16:01:11;;;;;;;7.70;4.05;;;;;;;4.94;81.66;100137.71;5123857;56;1139119;-76
2021/05/07 16:06:17;;;;;;;5.37;3.20;;;;;;;4.92;82.24;100135.65;5123530;55;1136629;-75
2021/05/07 16:11:22;;;;;;;11.13;5.90;;;;;;;4.92;83.35;100142.20;5123400;56;1136818;-73
2021/05/07 16:16:28;;;;;;;4.93;2.20;;;;;;;4.90;83.04;100154.08;4996850;56;1138669;-72
2021/05/07 16:21:36;;;;;;;4.97;2.07;;;;;;;4.95;82.97;100155.13;5124493;56;1136663;-74
2021/05/07 16:26:42;;;;;;;3.53;2.50;;;;;;;4.99;83.12;100164.50;5127780;55;1136837;-74
2021/05/07 16:31:48;;;;;;;3.13;1.97;;;;;;;5.01;83.40;100162.63;5123278;56;1136626;-72
2021/05/07 16:36:56;;;;;;;3.10;2.72;;;;;;;5.02;83.99;100173.48;5141397;56;1136845;-73
2021/05/07 16:42:02;;;;;;;13.43;5.53;;;;;;;5.01;83.95;100178.36;5114540;56;1136450;-73
2021/05/07 16:47:11;;;;;;;7.40;2.90;;;;;;;5.03;83.85;100177.80;5119677;56;1138733;-75
2021/05/07 16:52:16;;;;;;;6.63;3.63;;;;;;;5.11;84.32;100185.19;5122793;55;1136612;-73
2021/05/07 16:57:23;;;;;;;3.57;2.90;;;;;;;5.12;83.93;100184.25;5124071;56;1136864;-71
2021/05/07 17:02:29;;;;;;;3.80;2.33;;;;;;;5.23;84.02;100194.45;5124602;56;1136875;-72
2021/05/07 17:07:35;;;;;;;6.60;2.90;;;;;;;5.22;84.29;100204.56;5124567;56;1136720;-72
2021/05/07 17:12:40;;;;;;;74.80;28.70;;;;;;;5.20;84.17;100207.74;5125688;56;1136748;-73
2021/05/07 17:17:47;;;;;;;4.43;3.50;;;;;;;5.20;84.51;100213.45;5123441;56;1140751;-74
2021/05/07 17:22:52;;;;;;;8.07;3.80;;;;;;;5.15;85.00;100233.41;5125060;56;1136821;-73
2021/05/07 17:27:58;;;;;;;6.07;3.30;;;;;;;5.12;85.44;100240.14;5124471;56;1136510;-72
2021/05/07 17:33:04;;;;;;;5.92;4.33;;;;;;;5.10;85.75;100253.80;5121802;56;1136775;-73
2021/05/07 17:38:10;;;;;;;9.08;4.35;;;;;;;5.13;86.14;100260.65;5124324;56;1136764;-72
2021/05/07 17:43:15;;;;;;;8.37;4.47;;;;;;;5.16;85.98;100258.70;4990307;56;1136644;-74
2021/05/07 17:48:21;;;;;;;9.20;4.80;;;;;;;5.15;86.36;100264.02;4917149;57;1136850;-75
2021/05/07 17:53:27;;;;;;;5.67;5.13;;;;;;;5.16;86.54;100274.42;4949296;57;1136717;-75
2021/05/07 17:58:32;;;;;;;7.47;5.20;;;;;;;5.20;86.92;100286.86;5129469;56;1136651;-78
2021/05/07 18:03:38;;;;;;;5.73;3.93;;;;;;;5.18;86.99;100288.75;5129601;56;1136615;-75
2021/05/07 18:08:43;;;;;;;71.10;31.30;;;;;;;5.21;88.05;100295.10;5150453;55;1136701;-74
2021/05/07 18:13:49;;;;;;;247.05;131.72;;;;;;;5.24;87.26;100300.17;5130025;56;1140778;-73
2021/05/07 18:18:55;;;;;;;14.33;12.70;;;;;;;5.27;87.93;100302.63;5130167;55;1145010;-75
2021/05/07 18:24:00;;;;;;;7.17;4.77;;;;;;;5.28;87.65;100313.02;5133625;56;1140908;-72
2021/05/07 18:29:06;;;;;;;7.97;5.20;;;;;;;5.34;88.49;100319.69;5130082;56;1136604;-73
2021/05/07 18:34:12;;;;;;;8.35;5.10;;;;;;;5.36;87.99;100327.44;5130177;56;1136834;-72
2021/05/07 18:39:18;;;;;;;8.30;5.37;;;;;;;5.37;88.91;100341.77;5128420;56;1136924;-72
2021/05/07 18:44:24;;;;;;;11.75;6.42;;;;;;;5.42;88.80;100358.09;5131504;56;1136887;-73
2021/05/07 18:49:29;;;;;;;8.73;4.07;;;;;;;5.48;89.03;100364.30;5131538;56;1138702;-73
2021/05/07 18:54:37;;;;;;;7.67;4.70;;;;;;;5.54;88.55;100379.66;5128443;56;1136903;-73
2021/05/07 18:59:43;;;;;;;12.27;4.30;;;;;;;5.56;88.85;100384.36;5123660;56;1136822;-74
2021/05/07 19:04:49;;;;;;;8.17;3.80;;;;;;;5.54;88.47;100391.47;5123137;56;1138759;-73
2021/05/07 19:09:55;;;;;;;9.43;4.40;;;;;;;5.53;88.31;100392.86;5122214;54;1136419;-75
2021/05/07 19:15:00;;;;;;;2.20;2.00;;;;;;;5.48;88.44;100394.47;5124450;56;1136596;-69
2021/05/07 19:20:07;;;;;;;2.92;1.40;;;;;;;5.43;88.59;100396.97;5123811;55;1136678;-74
2021/05/07 19:25:13;;;;;;;7.57;3.63;;;;;;;5.36;88.81;100404.80;5123463;56;1134534;-75
2021/05/07 19:30:22;;;;;;;2.40;1.60;;;;;;;5.28;88.53;100406.11;5123271;56;1134683;-72
2021/05/07 19:35:29;;;;;;;4.43;2.13;;;;;;;5.19;87.87;100414.97;5123966;56;1134542;-73
2021/05/07 19:40:34;;;;;;;2.73;1.53;;;;;;;5.10;87.44;100414.17;5121492;56;1136754;-72
2021/05/07 19:45:41;;;;;;;2.43;1.40;;;;;;;5.03;87.39;100418.08;5123930;56;1136583;-73
2021/05/07 19:50:48;;;;;;;6.57;2.87;;;;;;;4.98;87.33;100422.73;5122532;56;1136766;-74
2021/05/07 19:55:54;;;;;;;9.05;4.20;;;;;;;4.91;87.35;100420.91;5121047;56;1136585;-73
2021/05/07 20:01:00;;;;;;;6.70;3.10;;;;;;;4.88;87.39;100427.19;5124555;56;1136750;-73
2021/05/07 20:06:07;;;;;;;2.67;1.60;;;;;;;4.89;87.48;100424.06;5124546;56;1136404;-72
2021/05/07 20:11:13;;;;;;;4.58;1.60;;;;;;;4.86;87.35;100441.30;5124193;56;1136654;-74
2021/05/07 20:16:19;;;;;;;5.20;2.23;;;;;;;4.79;87.07;100443.39;5125698;56;1136690;-73
2021/05/07 20:21:25;;;;;;;1.37;1.27;;;;;;;4.73;87.11;100445.52;5122709;56;1136913;-74
2021/05/07 20:26:30;;;;;;;3.77;1.20;;;;;;;4.68;87.24;100443.61;5122452;56;1136370;-74
2021/05/07 20:31:36;;;;;;;1.40;1.30;;;;;;;4.62;87.08;100451.78;5128403;56;1136698;-73
2021/05/07 20:36:43;;;;;;;4.37;2.60;;;;;;;4.54;87.30;100463.54;5122196;55;1136672;-74
2021/05/07 20:41:49;;;;;;;4.17;2.07;;;;;;;4.47;87.58;100471.33;5124736;56;1136525;-73
2021/05/07 20:46:55;;;;;;;3.27;1.63;;;;;;;4.44;87.49;100479.80;5110638;56;1136645;-73
2021/05/07 20:52:00;;;;;;;2.43;1.90;;;;;;;4.39;88.10;100484.45;5098878;56;1134566;-74
2021/05/07 20:57:07;;;;;;;6.87;2.13;;;;;;;4.34;88.38;100487.30;5118497;55;1134334;-74
2021/05/07 21:02:14;;;;;;;5.47;2.42;;;;;;;4.31;88.92;100490.54;5154755;56;1134308;-74
2021/05/07 21:07:20;;;;;;;7.07;3.60;;;;;;;4.29;88.50;100497.16;5154486;56;1134206;-74
2021/05/07 21:12:25;;;;;;;5.30;2.43;;;;;;;4.27;89.32;100506.05;5154299;56;1134633;-75
2021/05/07 21:17:32;;;;;;;3.40;2.13;;;;;;;4.26;88.66;100510.44;5154541;56;1134471;-74
2021/05/07 21:22:37;;;;;;;3.03;1.63;;;;;;;4.24;88.44;100518.36;5154275;56;1134396;-75
2021/05/07 21:27:44;;;;;;;1.93;1.47;;;;;;;4.22;88.70;100519.36;5153785;56;1134474;-75
2021/05/07 21:32:50;;;;;;;3.00;1.90;;;;;;;4.22;88.38;100524.59;5127178;56;1136742;-74
2021/05/07 21:37:56;;;;;;;1.23;1.13;;;;;;;4.26;88.37;100533.15;5153906;56;1136669;-73
2021/05/07 21:43:01;;;;;;;5.50;1.17;;;;;;;4.29;88.44;100532.50;5153829;54;1139085;-73
2021/05/07 21:48:07;;;;;;;2.47;1.87;;;;;;;4.31;88.31;100541.59;5154423;56;1136252;-73
2021/05/07 21:53:13;;;;;;;2.08;1.62;;;;;;;4.33;88.42;100540.59;5154308;56;1136423;-73
2021/05/07 21:58:22;;;;;;;1.63;1.53;;;;;;;4.32;88.91;100562.92;5154758;56;1136425;-72
2021/05/07 22:03:28;;;;;;;1.87;1.50;;;;;;;4.31;88.70;100562.08;5154266;56;1136920;-75
2021/05/07 22:08:34;;;;;;;2.27;1.70;;;;;;;4.32;88.68;100563.77;5154761;56;1136191;-74
2021/05/07 22:13:39;;;;;;;3.57;2.00;;;;;;;4.32;89.04;100564.23;5154352;56;1136259;-75
2021/05/07 22:18:45;;;;;;;2.73;1.93;;;;;;;4.32;88.70;100569.47;5154600;56;1136908;-73
2021/05/07 22:23:51;;;;;;;1.92;1.75;;;;;;;4.33;88.72;100573.31;5151031;55;1136225;-73
2021/05/07 22:28:56;;;;;;;2.97;2.20;;;;;;;4.31;88.73;100581.70;5154707;56;1136328;-73
2021/05/07 22:34:03;;;;;;;3.17;2.30;;;;;;;4.31;88.88;100584.33;5155151;56;1136605;-72
2021/05/07 22:39:08;;;;;;;3.45;2.50;;;;;;;4.34;89.03;100589.87;5154478;56;1136316;-73
2021/05/07 22:44:14;;;;;;;4.55;2.22;;;;;;;4.37;89.23;100594.50;5154904;56;1136686;-76
2021/05/07 22:49:20;;;;;;;6.27;2.27;;;;;;;4.41;89.20;100601.75;5154502;56;1136511;-75
2021/05/07 22:54:26;;;;;;;4.07;2.37;;;;;;;4.39;89.21;100607.52;5154578;56;1136791;-74
2021/05/07 22:59:31;;;;;;;3.47;2.33;;;;;;;4.36;89.61;100606.36;5154540;54;1136350;-75
2021/05/07 23:04:37;;;;;;;2.30;1.97;;;;;;;4.33;89.56;100606.50;5154796;56;1134610;-73
2021/05/07 23:09:46;;;;;;;1.77;1.67;;;;;;;4.32;89.78;100612.66;5155275;54;1134282;-73
2021/05/07 23:14:50;;;;;;;3.60;1.90;;;;;;;4.29;89.43;100611.50;5154503;55;1136451;-74
2021/05/07 23:19:56;;;;;;;2.60;2.30;;;;;;;4.28;89.19;100615.89;5154850;56;1134155;-73
2021/05/07 23:25:02;;;;;;;5.33;2.55;;;;;;;4.24;88.86;100621.77;5160293;56;1136652;-76
2021/05/07 23:30:11;;;;;;;3.47;2.35;;;;;;;4.21;88.71;100628.45;5139716;56;1136348;-76